createdAt,value
2023-05-20T00:00:02.487Z,1012.93
2023-05-20T00:01:03.296Z,1012.94
2023-05-20T00:02:03.160Z,1012.91
2023-05-20T00:03:03.272Z,1012.92
2023-05-20T00:04:03.540Z,1012.90
2023-05-20T00:05:03.089Z,1012.89
2023-05-20T00:06:02.731Z,1012.97
2023-05-20T00:07:02.602Z,1012.92
2023-05-20T00:08:02.513Z,1012.95
2023-05-20T00:09:02.639Z,1012.93
2023-05-20T00:10:02.629Z,1012.98
2023-05-20T00:11:03.351Z,1012.92
2023-05-20T00:12:03.214Z,1012.95
2023-05-20T00:13:03.138Z,1012.92
2023-05-20T00:14:03.051Z,1012.90
2023-05-20T00:15:03.237Z,1012.91
2023-05-20T00:16:02.888Z,1012.87
2023-05-20T00:17:02.909Z,1012.84
2023-05-20T00:18:02.916Z,1012.86
2023-05-20T00:19:02.939Z,1012.84
2023-05-20T00:20:02.898Z,1012.85
2023-05-20T00:21:02.890Z,1012.83
2023-05-20T00:22:03.064Z,1012.84
2023-05-20T00:23:03.077Z,1012.83
2023-05-20T00:24:02.827Z,1012.82
2023-05-20T00:25:03.034Z,1012.81
2023-05-20T00:26:02.799Z,1012.83
2023-05-20T00:27:02.684Z,1012.80
2023-05-20T00:28:02.619Z,1012.75
2023-05-20T00:29:02.547Z,1012.76
2023-05-20T00:30:02.535Z,1012.75
2023-05-20T00:31:03.174Z,1012.79
2023-05-20T00:32:02.872Z,1012.77
2023-05-20T00:33:02.922Z,1012.75
2023-05-20T00:34:03.027Z,1012.78
2023-05-20T00:35:02.841Z,1012.77
2023-05-20T00:36:03.637Z,1012.79
2023-05-20T00:37:03.671Z,1012.74
2023-05-20T00:38:03.589Z,1012.74
2023-05-20T00:39:03.509Z,1012.75
2023-05-20T00:40:03.481Z,1012.69
2023-05-20T00:41:03.267Z,1012.73
2023-05-20T00:42:03.166Z,1012.68
2023-05-20T00:43:03.134Z,1012.70
2023-05-20T00:44:03.173Z,1012.69
2023-05-20T00:45:03.007Z,1012.67
2023-05-20T00:46:02.868Z,1012.65
2023-05-20T00:47:02.646Z,1012.62
2023-05-20T00:48:02.484Z,1012.60
2023-05-20T00:49:02.594Z,1012.64
2023-05-20T00:50:02.549Z,1012.62
2023-05-20T00:51:03.202Z,1012.62
2023-05-20T00:52:03.006Z,1012.62
2023-05-20T00:53:02.776Z,1012.63
2023-05-20T00:54:02.794Z,1012.61
2023-05-20T00:55:02.875Z,1012.64
2023-05-20T00:56:03.546Z,1012.60
2023-05-20T00:57:03.617Z,1012.60
2023-05-20T00:58:03.462Z,1012.62
2023-05-20T00:59:03.623Z,1012.65
2023-05-20T01:00:03.348Z,1012.62
2023-05-20T01:01:02.783Z,1012.61
2023-05-20T01:02:02.472Z,1012.60
2023-05-20T01:03:02.689Z,1012.62
2023-05-20T01:04:02.543Z,1012.59
2023-05-20T01:05:02.494Z,1012.58
2023-05-20T01:06:03.209Z,1012.55
2023-05-20T01:07:03.058Z,1012.53
2023-05-20T01:08:03.064Z,1012.54
2023-05-20T01:09:03.081Z,1012.52
2023-05-20T01:10:03.121Z,1012.53
2023-05-20T01:11:02.782Z,1012.54
2023-05-20T01:12:02.602Z,1012.50
2023-05-20T01:13:02.635Z,1012.49
2023-05-20T01:14:02.523Z,1012.48
2023-05-20T01:15:02.583Z,1012.48
2023-05-20T01:16:02.526Z,1012.49
2023-05-20T01:17:02.960Z,1012.47
2023-05-20T01:18:02.648Z,1012.50
2023-05-20T01:19:02.903Z,1012.49
2023-05-20T01:20:02.948Z,1012.49
2023-05-20T01:21:03.445Z,1012.52
2023-05-20T01:22:03.118Z,1012.54
2023-05-20T01:23:03.357Z,1012.57
2023-05-20T01:24:03.344Z,1012.52
2023-05-20T01:25:03.077Z,1012.54
2023-05-20T01:26:03.135Z,1012.54
2023-05-20T01:27:03.161Z,1012.49
2023-05-20T01:28:03.096Z,1012.51
2023-05-20T01:29:03.705Z,1012.52
2023-05-20T01:30:03.123Z,1012.51
2023-05-20T01:31:03.769Z,1012.49
2023-05-20T01:32:03.626Z,1012.47
2023-05-20T01:33:03.325Z,1012.50
2023-05-20T01:34:03.288Z,1012.44
2023-05-20T01:35:03.234Z,1012.44
2023-05-20T01:36:02.281Z,1012.45
2023-05-20T01:37:02.762Z,1012.42
2023-05-20T01:38:02.763Z,1012.41
2023-05-20T01:39:02.749Z,1012.42
2023-05-20T01:40:02.719Z,1012.38
2023-05-20T01:41:02.637Z,1012.39
2023-05-20T01:42:03.259Z,1012.40
2023-05-20T01:43:02.931Z,1012.41
2023-05-20T01:44:02.895Z,1012.40
2023-05-20T01:45:02.825Z,1012.39
2023-05-20T01:46:02.783Z,1012.41
2023-05-20T01:47:03.536Z,1012.40
2023-05-20T01:48:03.114Z,1012.39
2023-05-20T01:49:02.813Z,1012.40
2023-05-20T01:50:02.860Z,1012.36
2023-05-20T01:51:03.163Z,1012.35
2023-05-20T01:52:03.153Z,1012.33
2023-05-20T01:53:03.130Z,1012.35
2023-05-20T01:54:03.151Z,1012.33
2023-05-20T01:55:03.173Z,1012.31
2023-05-20T01:56:02.184Z,1012.30
2023-05-20T01:57:02.432Z,1012.34
2023-05-20T01:58:02.614Z,1012.32
2023-05-20T01:59:02.536Z,1012.30
2023-05-20T02:00:02.277Z,1012.31
2023-05-20T02:01:02.356Z,1012.30
2023-05-20T02:02:02.312Z,1012.32
2023-05-20T02:03:02.978Z,1012.29
2023-05-20T02:04:02.700Z,1012.31
2023-05-20T02:05:02.732Z,1012.27
2023-05-20T02:06:02.964Z,1012.31
2023-05-20T02:07:03.029Z,1012.27
2023-05-20T02:08:03.104Z,1012.30
2023-05-20T02:09:03.017Z,1012.30
2023-05-20T02:10:03.064Z,1012.29
2023-05-20T02:11:02.278Z,1012.32
2023-05-20T02:12:02.207Z,1012.34
2023-05-20T02:13:02.596Z,1012.31
2023-05-20T02:14:02.468Z,1012.32
2023-05-20T02:15:02.419Z,1012.32
2023-05-20T02:16:02.436Z,1012.31
2023-05-20T02:17:02.289Z,1012.30
2023-05-20T02:18:02.324Z,1012.30
2023-05-20T02:19:02.881Z,1012.27
2023-05-20T02:20:02.896Z,1012.27
2023-05-20T02:21:02.594Z,1012.27
2023-05-20T02:22:02.547Z,1012.27
2023-05-20T02:23:02.461Z,1012.27
2023-05-20T02:24:03.020Z,1012.23
2023-05-20T02:25:02.489Z,1012.26
2023-05-20T02:26:03.071Z,1012.27
2023-05-20T02:27:03.672Z,1012.29
2023-05-20T02:28:03.274Z,1012.30
2023-05-20T02:29:03.190Z,1012.31
2023-05-20T02:30:03.069Z,1012.28
2023-05-20T02:31:02.697Z,1012.30
2023-05-20T02:32:02.707Z,1012.29
2023-05-20T02:33:02.933Z,1012.25
2023-05-20T02:34:02.571Z,1012.29
2023-05-20T02:35:03.120Z,1012.27
2023-05-20T02:36:02.763Z,1012.23
2023-05-20T02:37:02.676Z,1012.22
2023-05-20T02:38:03.248Z,1012.20
2023-05-20T02:39:03.011Z,1012.22
2023-05-20T02:40:02.903Z,1012.22
2023-05-20T02:41:02.773Z,1012.26
2023-05-20T02:42:02.695Z,1012.25
2023-05-20T02:43:03.096Z,1012.23
2023-05-20T02:44:03.179Z,1012.20
2023-05-20T02:45:02.954Z,1012.21
2023-05-20T02:46:02.910Z,1012.21
2023-05-20T02:47:02.772Z,1012.20
2023-05-20T02:48:02.723Z,1012.18
2023-05-20T02:49:02.696Z,1012.23
2023-05-20T02:50:03.241Z,1012.21
2023-05-20T02:51:02.323Z,1012.22
2023-05-20T02:52:02.302Z,1012.19
2023-05-20T02:53:02.566Z,1012.22
2023-05-20T02:54:02.583Z,1012.20
2023-05-20T02:55:02.604Z,1012.18
2023-05-20T02:56:02.697Z,1012.19
2023-05-20T02:57:02.644Z,1012.21
2023-05-20T02:58:02.639Z,1012.19
2023-05-20T02:59:02.592Z,1012.19
2023-05-20T03:00:02.681Z,1012.18
2023-05-20T03:01:01.762Z,1012.23
2023-05-20T03:02:01.530Z,1012.22
2023-05-20T03:03:02.082Z,1012.20
2023-05-20T03:04:01.699Z,1012.21
2023-05-20T03:05:01.763Z,1012.19
2023-05-20T03:06:01.733Z,1012.19
2023-05-20T03:07:01.676Z,1012.23
2023-05-20T03:08:01.592Z,1012.25
2023-05-20T03:09:01.586Z,1012.26
2023-05-20T03:10:01.773Z,1012.22
2023-05-20T03:11:01.655Z,1012.20
2023-05-20T03:12:01.617Z,1012.20
2023-05-20T03:13:01.538Z,1012.19
2023-05-20T03:14:02.140Z,1012.23
2023-05-20T03:15:01.891Z,1012.17
2023-05-20T03:16:01.970Z,1012.17
2023-05-20T03:17:01.858Z,1012.17
2023-05-20T03:18:01.910Z,1012.17
2023-05-20T03:19:01.825Z,1012.13
2023-05-20T03:20:01.919Z,1012.16
2023-05-20T03:21:02.625Z,1012.17
2023-05-20T03:22:02.550Z,1012.17
2023-05-20T03:23:02.478Z,1012.16
2023-05-20T03:24:02.428Z,1012.19
2023-05-20T03:25:02.794Z,1012.19
2023-05-20T03:26:01.829Z,1012.21
2023-05-20T03:27:01.762Z,1012.19
2023-05-20T03:28:01.869Z,1012.21
2023-05-20T03:29:01.711Z,1012.20
2023-05-20T03:30:01.826Z,1012.22
2023-05-20T03:31:02.328Z,1012.19
2023-05-20T03:32:02.252Z,1012.20
2023-05-20T03:33:01.831Z,1012.17
2023-05-20T03:34:02.316Z,1012.16
2023-05-20T03:35:01.880Z,1012.20
2023-05-20T03:36:02.681Z,1012.17
2023-05-20T03:37:02.520Z,1012.13
2023-05-20T03:38:02.529Z,1012.16
2023-05-20T03:39:02.995Z,1012.17
2023-05-20T03:40:02.654Z,1012.14
2023-05-20T03:41:02.388Z,1012.17
2023-05-20T03:42:02.408Z,1012.18
2023-05-20T03:43:02.625Z,1012.16
2023-05-20T03:44:02.373Z,1012.11
2023-05-20T03:45:02.389Z,1012.14
2023-05-20T03:46:02.481Z,1012.16
2023-05-20T03:47:02.612Z,1012.19
2023-05-20T03:48:02.513Z,1012.16
2023-05-20T03:49:02.427Z,1012.16
2023-05-20T03:50:02.392Z,1012.14
2023-05-20T03:51:02.111Z,1012.16
2023-05-20T03:52:02.080Z,1012.17
2023-05-20T03:53:01.828Z,1012.16
2023-05-20T03:54:01.848Z,1012.17
2023-05-20T03:55:01.965Z,1012.20
2023-05-20T03:56:02.706Z,1012.15
2023-05-20T03:57:02.796Z,1012.15
2023-05-20T03:58:02.772Z,1012.15
2023-05-20T03:59:02.687Z,1012.17
2023-05-20T04:00:02.782Z,1012.19
2023-05-20T04:01:02.122Z,1012.14
2023-05-20T04:02:02.164Z,1012.21
2023-05-20T04:03:02.068Z,1012.20
2023-05-20T04:04:02.145Z,1012.17
2023-05-20T04:05:02.146Z,1012.18
2023-05-20T04:06:02.232Z,1012.19
2023-05-20T04:07:02.232Z,1012.17
2023-05-20T04:08:02.353Z,1012.15
2023-05-20T04:09:02.182Z,1012.13
2023-05-20T04:10:02.221Z,1012.13
2023-05-20T04:11:02.258Z,1012.15
2023-05-20T04:12:02.248Z,1012.12
2023-05-20T04:13:02.325Z,1012.12
2023-05-20T04:14:02.116Z,1012.11
2023-05-20T04:15:01.787Z,1012.09
2023-05-20T04:16:02.661Z,1012.11
2023-05-20T04:17:02.649Z,1012.16
2023-05-20T04:18:02.531Z,1012.13
2023-05-20T04:19:02.522Z,1012.14
2023-05-20T04:20:02.649Z,1012.14
2023-05-20T04:21:02.258Z,1012.16
2023-05-20T04:22:02.077Z,1012.18
2023-05-20T04:23:01.776Z,1012.18
2023-05-20T04:24:01.975Z,1012.17
2023-05-20T04:25:02.074Z,1012.20
2023-05-20T04:26:02.324Z,1012.18
2023-05-20T04:27:02.302Z,1012.16
2023-05-20T04:28:02.117Z,1012.16
2023-05-20T04:29:02.072Z,1012.13
2023-05-20T04:30:01.792Z,1012.09
2023-05-20T04:31:02.724Z,1012.13
2023-05-20T04:32:02.556Z,1012.13
2023-05-20T04:33:02.668Z,1012.16
2023-05-20T04:34:02.089Z,1012.14
2023-05-20T04:35:02.104Z,1012.15
2023-05-20T04:36:02.913Z,1012.16
2023-05-20T04:37:02.750Z,1012.20
2023-05-20T04:38:02.851Z,1012.22
2023-05-20T04:39:02.840Z,1012.23
2023-05-20T04:40:02.905Z,1012.23
2023-05-20T04:41:02.599Z,1012.24
2023-05-20T04:42:02.447Z,1012.22
2023-05-20T04:43:02.493Z,1012.21
2023-05-20T04:44:02.558Z,1012.22
2023-05-20T04:45:02.518Z,1012.23
2023-05-20T04:46:02.624Z,1012.20
2023-05-20T04:47:02.272Z,1012.16
2023-05-20T04:48:02.402Z,1012.21
2023-05-20T04:49:02.108Z,1012.17
2023-05-20T04:50:02.216Z,1012.16
2023-05-20T04:51:02.993Z,1012.15
2023-05-20T04:52:02.488Z,1012.17
2023-05-20T04:53:02.540Z,1012.12
2023-05-20T04:54:02.718Z,1012.14
2023-05-20T04:55:02.795Z,1012.11
2023-05-20T04:56:03.004Z,1012.10
2023-05-20T04:57:02.836Z,1012.12
2023-05-20T04:58:02.506Z,1012.12
2023-05-20T04:59:02.607Z,1012.14
2023-05-20T05:00:02.738Z,1012.15
2023-05-20T05:01:03.118Z,1012.10
2023-05-20T05:02:02.988Z,1012.05
2023-05-20T05:03:03.124Z,1012.03
2023-05-20T05:04:03.057Z,1012.01
2023-05-20T05:05:02.971Z,1011.97
2023-05-20T05:06:03.297Z,1011.98
2023-05-20T05:07:03.208Z,1011.98
2023-05-20T05:08:03.236Z,1011.97
2023-05-20T05:09:03.162Z,1012.02
2023-05-20T05:10:03.462Z,1011.99
2023-05-20T05:11:02.293Z,1011.99
2023-05-20T05:12:02.394Z,1012.02
2023-05-20T05:13:02.479Z,1011.98
2023-05-20T05:14:02.533Z,1012.00
2023-05-20T05:15:02.609Z,1011.97
2023-05-20T05:16:02.849Z,1011.92
2023-05-20T05:17:02.995Z,1011.92
2023-05-20T05:18:03.138Z,1011.94
2023-05-20T05:19:03.313Z,1011.88
2023-05-20T05:20:03.343Z,1011.87
2023-05-20T05:21:03.388Z,1011.85
2023-05-20T05:22:02.663Z,1011.85
2023-05-20T05:23:02.817Z,1011.82
2023-05-20T05:24:02.950Z,1011.85
2023-05-20T05:25:03.054Z,1011.88
2023-05-20T05:26:02.495Z,1011.84
2023-05-20T05:27:02.694Z,1011.83
2023-05-20T05:28:02.765Z,1011.80
2023-05-20T05:29:02.876Z,1011.81
2023-05-20T05:30:03.019Z,1011.82
2023-05-20T05:31:03.184Z,1011.82
2023-05-20T05:32:03.030Z,1011.85
2023-05-20T05:33:02.930Z,1011.85
2023-05-20T05:34:02.766Z,1011.82
2023-05-20T05:35:02.759Z,1011.84
2023-05-20T05:36:02.919Z,1011.78
2023-05-20T05:37:02.789Z,1011.84
2023-05-20T05:38:02.964Z,1011.83
2023-05-20T05:39:02.885Z,1011.81
2023-05-20T05:40:02.853Z,1011.78
2023-05-20T05:41:02.668Z,1011.80
2023-05-20T05:42:02.615Z,1011.80
2023-05-20T05:43:02.276Z,1011.80
2023-05-20T05:44:02.499Z,1011.82
2023-05-20T05:45:02.028Z,1011.80
2023-05-20T05:46:02.219Z,1011.83
2023-05-20T05:47:03.029Z,1011.83
2023-05-20T05:48:02.652Z,1011.78
2023-05-20T05:49:02.710Z,1011.82
2023-05-20T05:50:02.840Z,1011.82
2023-05-20T05:51:02.976Z,1011.80
2023-05-20T05:52:03.300Z,1011.79
2023-05-20T05:53:03.161Z,1011.83
2023-05-20T05:54:02.739Z,1011.80
2023-05-20T05:55:02.896Z,1011.75
2023-05-20T05:56:02.775Z,1011.76
2023-05-20T05:57:03.650Z,1011.75
2023-05-20T05:58:02.543Z,1011.68
2023-05-20T05:59:02.688Z,1011.69
2023-05-20T06:00:02.446Z,1011.69
2023-05-20T06:01:02.354Z,1011.67
2023-05-20T06:02:03.201Z,1011.65
2023-05-20T06:03:03.225Z,1011.64
2023-05-20T06:04:03.434Z,1011.67
2023-05-20T06:05:03.318Z,1011.67
2023-05-20T06:06:03.192Z,1011.66
2023-05-20T06:07:03.046Z,1011.66
2023-05-20T06:08:02.955Z,1011.65
2023-05-20T06:09:03.159Z,1011.68
2023-05-20T06:10:03.201Z,1011.68
2023-05-20T06:11:03.310Z,1011.64
2023-05-20T06:12:03.483Z,1011.63
2023-05-20T06:13:03.317Z,1011.67
2023-05-20T06:14:03.432Z,1011.64
2023-05-20T06:15:03.157Z,1011.65
2023-05-20T06:16:03.302Z,1011.63
2023-05-20T06:17:03.445Z,1011.60
2023-05-20T06:18:03.521Z,1011.61
2023-05-20T06:19:03.901Z,1011.65
2023-05-20T06:20:03.291Z,1011.66
2023-05-20T06:21:03.460Z,1011.64
2023-05-20T06:22:03.459Z,1011.63
2023-05-20T06:23:03.257Z,1011.60
2023-05-20T06:24:03.431Z,1011.61
2023-05-20T06:25:03.213Z,1011.64
2023-05-20T06:26:03.397Z,1011.64
2023-05-20T06:27:03.313Z,1011.62
2023-05-20T06:28:03.421Z,1011.58
2023-05-20T06:29:03.634Z,1011.60
2023-05-20T06:30:03.118Z,1011.59
2023-05-20T06:31:03.374Z,1011.58
2023-05-20T06:32:03.303Z,1011.56
2023-05-20T06:33:03.368Z,1011.55
2023-05-20T06:34:02.707Z,1011.58
2023-05-20T06:35:02.942Z,1011.56
2023-05-20T06:36:03.248Z,1011.54
2023-05-20T06:37:02.848Z,1011.55
2023-05-20T06:38:03.513Z,1011.58
2023-05-20T06:39:03.166Z,1011.55
2023-05-20T06:40:03.000Z,1011.56
2023-05-20T06:41:03.153Z,1011.57
2023-05-20T06:42:02.416Z,1011.53
2023-05-20T06:43:02.644Z,1011.54
2023-05-20T06:44:02.884Z,1011.53
2023-05-20T06:45:02.413Z,1011.54
2023-05-20T06:46:02.723Z,1011.52
2023-05-20T06:47:02.851Z,1011.50
2023-05-20T06:48:03.119Z,1011.53
2023-05-20T06:49:03.283Z,1011.54
2023-05-20T06:50:03.518Z,1011.50
2023-05-20T06:51:03.016Z,1011.53
2023-05-20T06:52:03.730Z,1011.56
2023-05-20T06:53:03.222Z,1011.54
2023-05-20T06:54:03.639Z,1011.53
2023-05-20T06:55:03.466Z,1011.52
2023-05-20T06:56:03.699Z,1011.47
2023-05-20T06:57:03.333Z,1011.45
2023-05-20T06:58:03.483Z,1011.45
2023-05-20T06:59:03.416Z,1011.41
2023-05-20T07:00:02.872Z,1011.40
2023-05-20T07:01:03.215Z,1011.39
2023-05-20T07:02:02.752Z,1011.38
2023-05-20T07:03:02.924Z,1011.38
2023-05-20T07:04:02.602Z,1011.36
2023-05-20T07:05:02.655Z,1011.36
2023-05-20T07:06:02.654Z,1011.35
2023-05-20T07:07:01.985Z,1011.32
2023-05-20T07:08:02.080Z,1011.35
2023-05-20T07:09:02.397Z,1011.33
2023-05-20T07:10:02.404Z,1011.31
2023-05-20T07:11:02.150Z,1011.32
2023-05-20T07:12:02.332Z,1011.34
2023-05-20T07:13:02.551Z,1011.39
2023-05-20T07:14:02.834Z,1011.29
2023-05-20T07:15:02.791Z,1011.30
2023-05-20T07:16:02.726Z,1011.26
2023-05-20T07:17:02.730Z,1011.25
2023-05-20T07:18:03.076Z,1011.23
2023-05-20T07:19:03.008Z,1011.20
2023-05-20T07:20:03.214Z,1011.21
2023-05-20T07:21:03.206Z,1011.14
2023-05-20T07:22:02.457Z,1011.15
2023-05-20T07:23:02.065Z,1011.23
2023-05-20T07:24:02.381Z,1011.21
2023-05-20T07:25:02.684Z,1011.19
2023-05-20T07:26:02.114Z,1011.20
2023-05-20T07:27:02.285Z,1011.15
2023-05-20T07:28:02.499Z,1011.21
2023-05-20T07:29:02.728Z,1011.18
2023-05-20T07:30:02.153Z,1011.18
2023-05-20T07:31:02.098Z,1011.19
2023-05-20T07:32:02.464Z,1011.15
2023-05-20T07:33:02.750Z,1011.15
2023-05-20T07:34:02.467Z,1011.15
2023-05-20T07:35:02.729Z,1011.14
2023-05-20T07:36:02.741Z,1011.15
2023-05-20T07:37:03.098Z,1011.12
2023-05-20T07:38:02.759Z,1011.11
2023-05-20T07:39:05.708Z,1011.08
2023-05-20T07:40:02.925Z,1011.12
2023-05-20T07:41:03.124Z,1011.10
2023-05-20T07:42:02.405Z,1011.09
2023-05-20T07:43:02.269Z,1011.03
2023-05-20T07:44:02.464Z,1011.04
2023-05-20T07:45:02.418Z,1011.01
2023-05-20T07:46:02.462Z,1011.06
2023-05-20T07:47:02.518Z,1011.02
2023-05-20T07:48:02.670Z,1011.01
2023-05-20T07:49:02.697Z,1011.01
2023-05-20T07:50:02.343Z,1011.00
2023-05-20T07:51:02.443Z,1010.96
2023-05-20T07:52:03.277Z,1010.94
2023-05-20T07:53:02.602Z,1010.97
2023-05-20T07:54:02.623Z,1010.92
2023-05-20T07:55:02.677Z,1010.94
2023-05-20T07:56:02.866Z,1010.95
2023-05-20T07:57:01.961Z,1010.91
2023-05-20T07:58:02.136Z,1010.91
2023-05-20T07:59:02.324Z,1010.92
2023-05-20T08:00:02.369Z,1010.94
2023-05-20T08:01:02.329Z,1010.89
2023-05-20T08:02:02.613Z,1010.91
2023-05-20T08:03:02.993Z,1010.92
2023-05-20T08:04:02.395Z,1010.93
2023-05-20T08:05:02.681Z,1010.90
2023-05-20T08:06:03.047Z,1010.91
2023-05-20T08:07:02.856Z,1010.89
2023-05-20T08:08:02.725Z,1010.91
2023-05-20T08:09:02.849Z,1010.94
2023-05-20T08:10:03.119Z,1010.93
2023-05-20T08:11:02.711Z,1010.93
2023-05-20T08:12:02.399Z,1010.93
2023-05-20T08:13:02.685Z,1010.86
2023-05-20T08:14:02.968Z,1010.86
2023-05-20T08:15:02.787Z,1010.84
2023-05-20T08:16:02.326Z,1010.85
2023-05-20T08:17:03.212Z,1010.84
2023-05-20T08:18:03.509Z,1010.83
2023-05-20T08:19:03.381Z,1010.83
2023-05-20T08:20:02.951Z,1010.81
2023-05-20T08:21:03.096Z,1010.88
2023-05-20T08:22:02.963Z,1010.83
2023-05-20T08:23:03.061Z,1010.81
2023-05-20T08:24:03.294Z,1010.84
2023-05-20T08:25:03.470Z,1010.82
2023-05-20T08:26:03.101Z,1010.85
2023-05-20T08:27:03.339Z,1010.82
2023-05-20T08:28:03.153Z,1010.84
2023-05-20T08:29:03.404Z,1010.79
2023-05-20T08:30:03.332Z,1010.78
2023-05-20T08:31:03.500Z,1010.77
2023-05-20T08:32:02.652Z,1010.78
2023-05-20T08:33:02.880Z,1010.80
2023-05-20T08:34:02.250Z,1010.80
2023-05-20T08:35:02.538Z,1010.80
2023-05-20T08:36:02.576Z,1010.76
2023-05-20T08:37:02.664Z,1010.76
2023-05-20T08:38:02.917Z,1010.74
2023-05-20T08:39:02.414Z,1010.75
2023-05-20T08:40:02.559Z,1010.78
2023-05-20T08:41:04.056Z,1010.78
2023-05-20T08:42:02.820Z,1010.79
2023-05-20T08:43:02.621Z,1010.76
2023-05-20T08:44:02.820Z,1010.72
2023-05-20T08:45:02.620Z,1010.77
2023-05-20T08:46:02.651Z,1010.74
2023-05-20T08:47:03.292Z,1010.75
2023-05-20T08:48:03.406Z,1010.66
2023-05-20T08:49:03.670Z,1010.70
2023-05-20T08:50:03.238Z,1010.67
2023-05-20T08:51:03.412Z,1010.70
2023-05-20T08:52:03.416Z,1010.70
2023-05-20T08:53:03.520Z,1010.70
2023-05-20T08:54:03.359Z,1010.70
2023-05-20T08:55:02.827Z,1010.71
2023-05-20T08:56:03.019Z,1010.67
2023-05-20T08:57:03.266Z,1010.69
2023-05-20T08:58:03.495Z,1010.68
2023-05-20T08:59:03.010Z,1010.67
2023-05-20T09:00:03.271Z,1010.67
2023-05-20T09:01:03.507Z,1010.68
2023-05-20T09:02:03.593Z,1010.68
2023-05-20T09:03:03.602Z,1010.69
2023-05-20T09:04:03.586Z,1010.68
2023-05-20T09:05:03.130Z,1010.67
2023-05-20T09:06:03.057Z,1010.64
2023-05-20T09:07:03.088Z,1010.68
2023-05-20T09:08:05.067Z,1010.64
2023-05-20T09:09:02.607Z,1010.64
2023-05-20T09:10:03.031Z,1010.72
2023-05-20T09:11:02.957Z,1010.66
2023-05-20T09:12:02.914Z,1010.71
2023-05-20T09:13:03.144Z,1010.71
2023-05-20T09:14:03.091Z,1010.68
2023-05-20T09:15:02.685Z,1010.71
2023-05-20T09:16:02.787Z,1010.73
2023-05-20T09:17:03.628Z,1010.72
2023-05-20T09:18:03.145Z,1010.72
2023-05-20T09:19:03.550Z,1010.74
2023-05-20T09:20:03.473Z,1010.67
2023-05-20T09:21:03.698Z,1010.65
2023-05-20T09:22:02.684Z,1010.68
2023-05-20T09:23:02.220Z,1010.66
2023-05-20T09:24:02.365Z,1010.67
2023-05-20T09:25:02.791Z,1010.61
2023-05-20T09:26:02.807Z,1010.60
2023-05-20T09:27:02.738Z,1010.59
2023-05-20T09:28:02.580Z,1010.58
2023-05-20T09:29:02.697Z,1010.58
2023-05-20T09:30:02.248Z,1010.60
2023-05-20T09:31:02.290Z,1010.63
2023-05-20T09:32:02.997Z,1010.65
2023-05-20T09:33:02.973Z,1010.62
2023-05-20T09:34:03.073Z,1010.61
2023-05-20T09:35:02.974Z,1010.63
2023-05-20T09:36:02.903Z,1010.63
2023-05-20T09:37:02.757Z,1010.62
2023-05-20T09:38:02.897Z,1010.68
2023-05-20T09:39:02.947Z,1010.71
2023-05-20T09:40:03.035Z,1010.75
2023-05-20T09:41:03.239Z,1010.74
2023-05-20T09:42:04.073Z,1010.65
2023-05-20T09:43:03.079Z,1010.64
2023-05-20T09:44:03.187Z,1010.64
2023-05-20T09:45:03.097Z,1010.64
2023-05-20T09:46:03.188Z,1010.69
2023-05-20T09:47:03.247Z,1010.68
2023-05-20T09:48:02.904Z,1010.68
2023-05-20T09:49:02.959Z,1010.70
2023-05-20T09:50:03.206Z,1010.72
2023-05-20T09:51:03.310Z,1010.70
2023-05-20T09:52:03.552Z,1010.71
2023-05-20T09:53:03.515Z,1010.69
2023-05-20T09:54:03.631Z,1010.66
2023-05-20T09:55:03.496Z,1010.65
2023-05-20T09:56:03.776Z,1010.59
2023-05-20T09:57:03.629Z,1010.64
2023-05-20T09:58:03.205Z,1010.68
2023-05-20T09:59:03.227Z,1010.60
2023-05-20T10:00:03.604Z,1010.65
2023-05-20T10:01:03.740Z,1010.60
2023-05-20T10:02:03.825Z,1010.68
2023-05-20T10:03:03.684Z,1010.69
2023-05-20T10:04:03.684Z,1010.68
2023-05-20T10:05:03.741Z,1010.65
2023-05-20T10:06:03.209Z,1010.62
2023-05-20T10:07:03.130Z,1010.58
2023-05-20T10:08:02.592Z,1010.62
2023-05-20T10:09:02.858Z,1010.68
2023-05-20T10:10:03.204Z,1010.66
2023-05-20T10:11:03.122Z,1010.66
2023-05-20T10:12:03.255Z,1010.61
2023-05-20T10:13:03.173Z,1010.62
2023-05-20T10:14:02.679Z,1010.63
2023-05-20T10:15:03.215Z,1010.61
2023-05-20T10:16:02.719Z,1010.62
2023-05-20T10:17:03.756Z,1010.61
2023-05-20T10:18:03.188Z,1010.58
2023-05-20T10:19:03.530Z,1010.61
2023-05-20T10:20:05.883Z,1010.57
2023-05-20T10:21:03.721Z,1010.55
2023-05-20T10:22:03.332Z,1010.50
2023-05-20T10:23:03.228Z,1010.48
2023-05-20T10:24:03.214Z,1010.44
2023-05-20T10:25:03.060Z,1010.51
2023-05-20T10:26:03.290Z,1010.44
2023-05-20T10:27:03.841Z,1010.43
2023-05-20T10:28:03.413Z,1010.48
2023-05-20T10:29:03.802Z,1010.46
2023-05-20T10:30:03.922Z,1010.46
2023-05-20T10:31:03.357Z,1010.45
2023-05-20T10:32:03.442Z,1010.49
2023-05-20T10:33:03.840Z,1010.42
2023-05-20T10:34:03.436Z,1010.42
2023-05-20T10:35:03.522Z,1010.47
2023-05-20T10:36:03.762Z,1010.44
2023-05-20T10:37:03.007Z,1010.48
2023-05-20T10:38:03.025Z,1010.43
2023-05-20T10:39:03.166Z,1010.51
2023-05-20T10:40:03.281Z,1010.45
2023-05-20T10:41:03.632Z,1010.50
2023-05-20T10:42:02.606Z,1010.48
2023-05-20T10:43:02.982Z,1010.42
2023-05-20T10:44:03.059Z,1010.44
2023-05-20T10:45:03.150Z,1010.40
2023-05-20T10:46:05.141Z,1010.39
2023-05-20T10:47:23.606Z,1010.34
2023-05-20T10:48:02.758Z,1010.33
2023-05-20T10:49:03.364Z,1010.32
2023-05-20T10:50:02.687Z,1010.32
2023-05-20T10:51:02.758Z,1010.33
2023-05-20T10:52:02.831Z,1010.32
2023-05-20T10:53:03.051Z,1010.33
2023-05-20T10:54:03.245Z,1010.35
2023-05-20T10:55:03.267Z,1010.31
2023-05-20T10:56:02.702Z,1010.32
2023-05-20T10:57:02.918Z,1010.34
2023-05-20T10:58:03.156Z,1010.29
2023-05-20T10:59:03.208Z,1010.32
2023-05-20T11:00:03.279Z,1010.32
2023-05-20T11:01:03.010Z,1010.32
2023-05-20T11:02:03.580Z,1010.34
2023-05-20T11:03:03.737Z,1010.36
2023-05-20T11:04:03.809Z,1010.39
2023-05-20T11:05:03.824Z,1010.37
2023-05-20T11:06:03.605Z,1010.35
2023-05-20T11:07:03.010Z,1010.39
2023-05-20T11:08:04.376Z,1010.29
2023-05-20T11:09:03.093Z,1010.37
2023-05-20T11:10:03.453Z,1010.35
2023-05-20T11:11:03.424Z,1010.34
2023-05-20T11:12:02.604Z,1010.34
2023-05-20T11:13:03.055Z,1010.33
2023-05-20T11:14:03.078Z,1010.41
2023-05-20T11:15:02.988Z,1010.36
2023-05-20T11:16:02.633Z,1010.33
2023-05-20T11:17:03.320Z,1010.29
2023-05-20T11:18:03.623Z,1010.25
2023-05-20T11:19:03.200Z,1010.23
2023-05-20T11:20:03.396Z,1010.20
2023-05-20T11:21:03.511Z,1010.23
2023-05-20T11:22:02.954Z,1010.23
2023-05-20T11:23:03.036Z,1010.16
2023-05-20T11:24:03.256Z,1010.19
2023-05-20T11:25:03.264Z,1010.22
2023-05-20T11:26:02.930Z,1010.14
2023-05-20T11:27:03.484Z,1010.20
2023-05-20T11:28:03.365Z,1010.20
2023-05-20T11:29:03.563Z,1010.13
2023-05-20T11:30:03.433Z,1010.17
2023-05-20T11:31:03.011Z,1010.13
2023-05-20T11:32:03.326Z,1010.10
2023-05-20T11:33:03.663Z,1010.08
2023-05-20T11:34:03.519Z,1010.08
2023-05-20T11:35:03.664Z,1010.12
2023-05-20T11:36:06.423Z,1010.06
2023-05-20T11:37:03.542Z,1010.06
2023-05-20T11:38:03.791Z,1010.07
2023-05-20T11:39:03.366Z,1010.03
2023-05-20T11:40:03.976Z,1010.05
2023-05-20T11:41:03.799Z,1010.03
2023-05-20T11:42:03.015Z,1009.99
2023-05-20T11:43:02.802Z,1010.01
2023-05-20T11:44:02.947Z,1009.97
2023-05-20T11:45:03.034Z,1009.98
2023-05-20T11:46:03.229Z,1010.00
2023-05-20T11:47:03.429Z,1009.97
2023-05-20T11:48:03.817Z,1009.98
2023-05-20T11:49:03.645Z,1009.98
2023-05-20T11:50:03.737Z,1009.93
2023-05-20T11:51:03.472Z,1009.94
2023-05-20T11:52:03.715Z,1009.94
2023-05-20T11:53:03.557Z,1009.91
2023-05-20T11:54:03.780Z,1009.90
2023-05-20T11:55:03.806Z,1009.87
2023-05-20T11:56:03.943Z,1009.85
2023-05-20T11:57:05.649Z,1009.84
2023-05-20T11:58:03.079Z,1009.84
2023-05-20T11:59:03.194Z,1009.85
2023-05-20T12:00:03.282Z,1009.83
2023-05-20T12:01:17.894Z,1009.80
2023-05-20T12:02:02.840Z,1009.81
2023-05-20T12:03:03.089Z,1009.83
2023-05-20T12:04:03.178Z,1009.77
2023-05-20T12:05:02.966Z,1009.76